createdAt,value
2024-05-09T00:52:51.219Z,5.35
2024-05-09T00:57:54.081Z,19.10
2024-05-09T01:02:56.675Z,17.75
2024-05-09T01:07:58.995Z,13.45
2024-05-09T01:13:01.211Z,14.20
2024-05-09T01:18:07.650Z,12.05
2024-05-09T01:23:10.456Z,18.47
2024-05-09T01:28:12.927Z,13.90
2024-05-09T01:33:15.345Z,12.02
2024-05-09T01:38:19.819Z,9.90
2024-05-09T01:43:22.116Z,9.40
2024-05-09T01:48:24.489Z,12.25
2024-05-09T01:53:26.890Z,11.10
2024-05-09T01:58:29.346Z,7.53
2024-05-09T02:03:31.696Z,7.38
2024-05-09T02:08:34.066Z,6.88
2024-05-09T02:13:36.341Z,6.63
2024-05-09T02:18:39.026Z,5.88
2024-05-09T02:23:41.335Z,9.63
2024-05-09T02:28:43.584Z,7.32
2024-05-09T02:38:48.120Z,5.95
2024-05-09T02:43:50.375Z,8.70
2024-05-09T02:48:52.645Z,6.35
2024-05-09T02:53:54.974Z,5.32
2024-05-09T02:58:57.213Z,5.85
2024-05-09T03:03:59.603Z,4.80
2024-05-09T03:09:04.730Z,6.50
2024-05-09T03:14:07.363Z,8.73
2024-05-09T03:19:09.817Z,8.50
2024-05-09T03:24:12.130Z,7.93
2024-05-09T03:29:14.404Z,8.98
2024-05-09T03:34:16.732Z,8.38
2024-05-09T03:39:18.961Z,10.40
2024-05-09T03:44:21.362Z,11.77
2024-05-09T03:49:23.931Z,11.40
2024-05-09T03:54:27.501Z,10.55
2024-05-09T03:59:29.892Z,7.80
2024-05-09T04:04:32.392Z,7.93
2024-05-09T04:09:34.676Z,8.23
2024-05-09T04:14:36.904Z,8.73
2024-05-09T04:19:39.147Z,9.32
2024-05-09T04:24:41.352Z,10.32
2024-05-09T04:29:43.569Z,9.80
2024-05-09T04:34:45.811Z,11.75
2024-05-09T04:39:48.059Z,10.75
2024-05-09T04:44:50.294Z,11.35
2024-05-09T04:49:52.544Z,12.38
2024-05-09T04:54:58.433Z,15.77
2024-05-09T05:00:03.011Z,12.88
2024-05-09T05:05:06.551Z,12.65
2024-05-09T05:10:14.871Z,37.70
2024-05-09T05:15:23.294Z,15.77
2024-05-09T05:20:32.681Z,14.30
2024-05-09T05:25:35.970Z,14.10
2024-05-09T05:30:39.623Z,16.05
2024-05-09T05:35:42.416Z,17.25
2024-05-09T05:40:44.774Z,15.38
2024-05-09T05:45:47.086Z,14.75
2024-05-09T05:50:49.381Z,14.23
2024-05-09T05:55:51.635Z,11.88
2024-05-09T06:00:54.019Z,11.68
2024-05-09T06:05:56.354Z,12.02
2024-05-09T06:10:58.715Z,12.50
2024-05-09T06:16:02.342Z,12.30
2024-05-09T06:21:04.545Z,10.40
2024-05-09T06:26:06.857Z,9.55
2024-05-09T06:31:09.073Z,10.68
2024-05-09T06:36:11.291Z,9.57
2024-05-09T06:41:13.550Z,9.23
2024-05-09T06:46:15.767Z,9.15
2024-05-09T06:51:18.038Z,10.60
2024-05-09T06:56:20.244Z,9.45
2024-05-09T07:01:22.619Z,9.00
2024-05-09T07:06:25.167Z,9.00
2024-05-09T07:11:27.429Z,9.05
2024-05-09T07:16:29.658Z,8.52
2024-05-09T07:21:35.094Z,7.57
2024-05-09T07:26:37.442Z,7.50
2024-05-09T07:31:40.523Z,12.88
2024-05-09T07:36:43.090Z,25.95
2024-05-09T07:41:45.354Z,40.90
2024-05-09T07:47:48.604Z,48.15
2024-05-09T07:53:27.788Z,58.00
2024-05-09T07:57:32.051Z,59.60
2024-05-09T08:02:34.390Z,55.55
2024-05-09T08:07:39.272Z,46.58
2024-05-09T08:12:41.521Z,14.70
2024-05-09T08:17:43.859Z,8.80
2024-05-09T08:22:46.278Z,6.25
2024-05-09T08:27:48.737Z,4.75
2024-05-09T08:32:51.002Z,3.80
2024-05-09T08:37:53.603Z,3.00
2024-05-09T08:42:57.448Z,3.20
2024-05-09T08:48:03.985Z,2.75
2024-05-09T08:53:06.398Z,2.92
2024-05-09T08:58:11.094Z,2.15
2024-05-09T09:03:16.115Z,2.70
2024-05-09T09:08:18.669Z,2.20
2024-05-09T09:13:20.974Z,2.08
2024-05-09T09:18:25.858Z,2.28
2024-05-09T09:23:29.848Z,2.03
2024-05-09T09:28:36.955Z,2.22
2024-05-09T09:33:43.198Z,2.30
2024-05-09T09:38:46.787Z,2.20
2024-05-09T09:43:49.281Z,2.03
2024-05-09T09:48:51.871Z,2.05
2024-05-09T09:53:54.268Z,1.50
2024-05-09T09:58:58.007Z,1.73
2024-05-09T10:04:00.451Z,1.88
2024-05-09T10:09:02.972Z,1.70
2024-05-09T10:14:05.167Z,1.73
2024-05-09T10:19:07.576Z,1.60
2024-05-09T10:24:09.859Z,2.08
2024-05-09T10:29:12.046Z,1.75
2024-05-09T10:34:18.310Z,1.92
2024-05-09T10:39:21.231Z,3.03
2024-05-09T10:44:23.557Z,2.40
2024-05-09T10:49:25.921Z,2.35
2024-05-09T10:54:35.886Z,2.38
2024-05-09T10:59:39.647Z,2.63
2024-05-09T11:04:42.491Z,2.47
2024-05-09T11:09:44.962Z,2.38
2024-05-09T11:14:53.720Z,1.88
2024-05-09T11:19:55.961Z,2.00
2024-05-09T11:24:58.343Z,2.17
2024-05-09T11:50:26.429Z,2.00
2024-05-09T12:00:38.474Z,1.80
2024-05-09T12:05:41.071Z,1.83
2024-05-09T12:25:50.138Z,2.45
2024-05-09T12:30:52.483Z,1.55
2024-05-09T21:55:41.691Z,538.33
2024-05-09T22:00:46.356Z,604.78
2024-05-09T22:05:48.888Z,609.85
2024-05-09T22:10:51.248Z,300.92
2024-05-09T22:15:53.676Z,314.08
2024-05-09T22:20:55.892Z,628.47
2024-05-09T22:25:58.084Z,541.85
2024-05-09T22:31:00.465Z,631.65
2024-05-09T22:36:02.667Z,657.42
2024-05-09T22:41:08.221Z,663.38
2024-05-09T22:46:10.494Z,475.10
2024-05-09T22:51:13.312Z,15.38
2024-05-09T22:56:15.761Z,5.43
2024-05-09T23:01:18.035Z,6.88
2024-05-09T23:06:20.375Z,7.72
2024-05-09T23:11:22.615Z,6.43
2024-05-09T23:16:24.970Z,5.30
2024-05-09T23:21:27.287Z,5.75
2024-05-09T23:26:29.487Z,5.30
2024-05-09T23:31:31.825Z,77.75
2024-05-09T23:36:34.080Z,593.67
2024-05-09T23:41:36.459Z,615.33
2024-05-09T23:46:38.716Z,637.20
2024-05-09T23:51:40.943Z,318.88
2024-05-09T23:56:43.180Z,499.38
